sensor_id;sensor_type;location;lat;lon;timestamp;P1;durP1;ratioP1;P2;durP2;ratioP2
76723;SDS011;65650;53.126;17.950;2022-12-10T00:00:01;56.30;;;22.70;;
76723;SDS011;65650;53.126;17.950;2022-12-10T00:02:28;60.50;;;23.30;;
76723;SDS011;65650;53.126;17.950;2022-12-10T00:04:57;63.50;;;23.00;;
76723;SDS011;65650;53.126;17.950;2022-12-10T00:07:24;64.00;;;23.10;;
76723;SDS011;65650;53.126;17.950;2022-12-10T00:09:50;62.60;;;22.90;;
76723;SDS011;65650;53.126;17.950;2022-12-10T00:12:17;55.70;;;21.60;;
76723;SDS011;65650;53.126;17.950;2022-12-10T00:14:43;63.70;;;22.50;;
76723;SDS011;65650;53.126;17.950;2022-12-10T00:17:10;57.20;;;21.50;;
76723;SDS011;65650;53.126;17.950;2022-12-10T00:19:36;57.90;;;22.00;;
76723;SDS011;65650;53.126;17.950;2022-12-10T00:22:03;54.90;;;22.10;;
76723;SDS011;65650;53.126;17.950;2022-12-10T00:24:29;55.30;;;22.20;;
76723;SDS011;65650;53.126;17.950;2022-12-10T00:26:56;50.90;;;19.40;;
76723;SDS011;65650;53.126;17.950;2022-12-10T00:29:23;52.50;;;20.20;;
76723;SDS011;65650;53.126;17.950;2022-12-10T00:31:50;59.00;;;22.50;;
76723;SDS011;65650;53.126;17.950;2022-12-10T00:34:16;57.40;;;21.80;;
76723;SDS011;65650;53.126;17.950;2022-12-10T00:36:44;56.20;;;21.20;;
76723;SDS011;65650;53.126;17.950;2022-12-10T00:39:12;64.70;;;24.00;;
76723;SDS011;65650;53.126;17.950;2022-12-10T00:41:39;61.40;;;22.70;;
76723;SDS011;65650;53.126;17.950;2022-12-10T00:44:06;60.20;;;22.10;;
76723;SDS011;65650;53.126;17.950;2022-12-10T00:46:32;60.60;;;22.90;;
76723;SDS011;65650;53.126;17.950;2022-12-10T00:48:59;55.30;;;20.70;;
76723;SDS011;65650;53.126;17.950;2022-12-10T00:51:27;54.40;;;21.30;;
76723;SDS011;65650;53.126;17.950;2022-12-10T00:53:55;57.40;;;20.80;;
76723;SDS011;65650;53.126;17.950;2022-12-10T00:56:27;58.80;;;22.00;;
76723;SDS011;65650;53.126;17.950;2022-12-10T00:58:54;54.60;;;20.80;;
76723;SDS011;65650;53.126;17.950;2022-12-10T01:03:53;50.70;;;20.10;;
76723;SDS011;65650;53.126;17.950;2022-12-10T01:08:46;53.90;;;19.90;;
76723;SDS011;65650;53.126;17.950;2022-12-10T01:11:14;54.80;;;19.50;;
76723;SDS011;65650;53.126;17.950;2022-12-10T01:13:41;52.50;;;21.80;;
76723;SDS011;65650;53.126;17.950;2022-12-10T01:16:09;56.30;;;21.50;;
76723;SDS011;65650;53.126;17.950;2022-12-10T01:18:35;55.60;;;20.50;;
76723;SDS011;65650;53.126;17.950;2022-12-10T01:21:03;53.10;;;21.00;;
76723;SDS011;65650;53.126;17.950;2022-12-10T01:23:33;58.00;;;21.40;;
76723;SDS011;65650;53.126;17.950;2022-12-10T01:26:01;51.60;;;20.10;;
76723;SDS011;65650;53.126;17.950;2022-12-10T01:28:29;54.80;;;20.30;;
76723;SDS011;65650;53.126;17.950;2022-12-10T01:30:59;52.40;;;20.80;;
76723;SDS011;65650;53.126;17.950;2022-12-10T01:33:25;48.20;;;18.80;;
76723;SDS011;65650;53.126;17.950;2022-12-10T01:35:53;41.70;;;16.90;;
76723;SDS011;65650;53.126;17.950;2022-12-10T01:38:20;44.60;;;17.10;;
76723;SDS011;65650;53.126;17.950;2022-12-10T01:40:46;48.60;;;17.80;;
76723;SDS011;65650;53.126;17.950;2022-12-10T01:43:16;37.50;;;16.50;;
76723;SDS011;65650;53.126;17.950;2022-12-10T01:45:42;39.60;;;16.90;;
76723;SDS011;65650;53.126;17.950;2022-12-10T01:48:09;38.20;;;15.10;;
76723;SDS011;65650;53.126;17.950;2022-12-10T01:50:37;34.20;;;14.50;;
76723;SDS011;65650;53.126;17.950;2022-12-10T01:53:05;40.10;;;15.50;;
76723;SDS011;65650;53.126;17.950;2022-12-10T01:55:46;35.90;;;15.80;;
76723;SDS011;65650;53.126;17.950;2022-12-10T01:58:14;36.10;;;14.30;;
76723;SDS011;65650;53.126;17.950;2022-12-10T02:00:45;31.30;;;13.00;;
76723;SDS011;65650;53.126;17.950;2022-12-10T02:03:13;34.60;;;14.20;;
76723;SDS011;65650;53.126;17.950;2022-12-10T02:05:49;34.30;;;14.10;;
76723;SDS011;65650;53.126;17.950;2022-12-10T02:10:59;30.70;;;12.80;;
76723;SDS011;65650;53.126;17.950;2022-12-10T02:13:40;29.00;;;12.70;;
76723;SDS011;65650;53.126;17.950;2022-12-10T02:16:09;31.20;;;12.10;;
76723;SDS011;65650;53.126;17.950;2022-12-10T02:18:58;28.30;;;12.00;;
76723;SDS011;65650;53.126;17.950;2022-12-10T02:21:36;28.90;;;11.60;;
76723;SDS011;65650;53.126;17.950;2022-12-10T02:24:05;29.90;;;10.90;;
76723;SDS011;65650;53.126;17.950;2022-12-10T02:26:36;27.80;;;11.40;;
76723;SDS011;65650;53.126;17.950;2022-12-10T02:31:30;26.80;;;11.30;;
76723;SDS011;65650;53.126;17.950;2022-12-10T02:33:59;31.40;;;12.10;;
76723;SDS011;65650;53.126;17.950;2022-12-10T02:36:28;28.30;;;11.90;;
76723;SDS011;65650;53.126;17.950;2022-12-10T02:38:56;32.30;;;11.70;;
76723;SDS011;65650;53.126;17.950;2022-12-10T02:41:34;28.90;;;11.10;;
76723;SDS011;65650;53.126;17.950;2022-12-10T02:44:02;28.10;;;11.40;;
76723;SDS011;65650;53.126;17.950;2022-12-10T02:46:29;30.20;;;12.80;;
76723;SDS011;65650;53.126;17.950;2022-12-10T02:48:59;25.80;;;10.10;;
76723;SDS011;65650;53.126;17.950;2022-12-10T02:51:27;28.00;;;12.20;;
76723;SDS011;65650;53.126;17.950;2022-12-10T02:53:58;26.40;;;11.20;;
76723;SDS011;65650;53.126;17.950;2022-12-10T02:56:27;27.30;;;10.20;;
76723;SDS011;65650;53.126;17.950;2022-12-10T02:59:02;28.20;;;11.60;;
76723;SDS011;65650;53.126;17.950;2022-12-10T03:01:42;23.30;;;10.60;;
76723;SDS011;65650;53.126;17.950;2022-12-10T03:06:40;25.40;;;10.00;;
76723;SDS011;65650;53.126;17.950;2022-12-10T03:09:19;25.60;;;11.40;;
76723;SDS011;65650;53.126;17.950;2022-12-10T03:11:46;26.20;;;11.40;;
76723;SDS011;65650;53.126;17.950;2022-12-10T03:14:16;22.70;;;9.10;;
76723;SDS011;65650;53.126;17.950;2022-12-10T03:16:50;25.30;;;10.00;;
76723;SDS011;65650;53.126;17.950;2022-12-10T03:19:18;28.60;;;10.70;;
76723;SDS011;65650;53.126;17.950;2022-12-10T03:21:46;26.40;;;10.10;;
76723;SDS011;65650;53.126;17.950;2022-12-10T03:24:14;24.00;;;10.20;;
76723;SDS011;65650;53.126;17.950;2022-12-10T03:26:42;24.10;;;11.30;;
76723;SDS011;65650;53.126;17.950;2022-12-10T03:29:12;26.90;;;9.90;;
76723;SDS011;65650;53.126;17.950;2022-12-10T03:31:40;25.10;;;11.20;;
76723;SDS011;65650;53.126;17.950;2022-12-10T03:34:08;23.60;;;9.90;;
76723;SDS011;65650;53.126;17.950;2022-12-10T03:36:35;20.70;;;9.70;;
76723;SDS011;65650;53.126;17.950;2022-12-10T03:39:02;25.80;;;10.40;;
76723;SDS011;65650;53.126;17.950;2022-12-10T03:41:29;24.10;;;9.30;;
76723;SDS011;65650;53.126;17.950;2022-12-10T03:43:57;23.00;;;9.10;;
76723;SDS011;65650;53.126;17.950;2022-12-10T03:46:24;24.00;;;9.40;;
76723;SDS011;65650;53.126;17.950;2022-12-10T03:48:51;22.60;;;9.30;;
76723;SDS011;65650;53.126;17.950;2022-12-10T03:51:18;25.00;;;9.80;;
76723;SDS011;65650;53.126;17.950;2022-12-10T03:53:45;29.10;;;12.40;;
76723;SDS011;65650;53.126;17.950;2022-12-10T03:56:12;35.30;;;14.20;;
76723;SDS011;65650;53.126;17.950;2022-12-10T03:58:38;38.20;;;15.70;;
76723;SDS011;65650;53.126;17.950;2022-12-10T04:01:05;72.90;;;27.40;;
76723;SDS011;65650;53.126;17.950;2022-12-10T04:03:34;61.00;;;20.90;;
76723;SDS011;65650;53.126;17.950;2022-12-10T04:06:04;29.20;;;12.10;;
76723;SDS011;65650;53.126;17.950;2022-12-10T04:08:31;32.30;;;12.60;;
76723;SDS011;65650;53.126;17.950;2022-12-10T04:11:02;80.00;;;28.50;;
76723;SDS011;65650;53.126;17.950;2022-12-10T04:13:30;39.90;;;14.60;;
76723;SDS011;65650;53.126;17.950;2022-12-10T04:16:16;27.30;;;10.80;;
76723;SDS011;65650;53.126;17.950;2022-12-10T04:18:55;25.50;;;10.30;;
76723;SDS011;65650;53.126;17.950;2022-12-10T04:21:22;26.10;;;10.80;;
76723;SDS011;65650;53.126;17.950;2022-12-10T04:24:08;28.00;;;10.80;;
76723;SDS011;65650;53.126;17.950;2022-12-10T04:26:54;33.40;;;12.10;;
76723;SDS011;65650;53.126;17.950;2022-12-10T04:29:22;34.30;;;13.30;;
76723;SDS011;65650;53.126;17.950;2022-12-10T04:31:49;33.10;;;13.30;;
76723;SDS011;65650;53.126;17.950;2022-12-10T04:34:16;27.00;;;11.20;;
76723;SDS011;65650;53.126;17.950;2022-12-10T04:36:42;27.40;;;11.20;;
76723;SDS011;65650;53.126;17.950;2022-12-10T04:39:10;38.50;;;15.40;;
76723;SDS011;65650;53.126;17.950;2022-12-10T04:41:41;33.80;;;13.00;;
76723;SDS011;65650;53.126;17.950;2022-12-10T04:44:08;29.60;;;12.50;;
76723;SDS011;65650;53.126;17.950;2022-12-10T04:46:35;54.60;;;20.20;;
76723;SDS011;65650;53.126;17.950;2022-12-10T04:49:02;38.40;;;15.90;;
76723;SDS011;65650;53.126;17.950;2022-12-10T04:51:29;27.90;;;11.00;;
76723;SDS011;65650;53.126;17.950;2022-12-10T04:53:55;34.30;;;12.60;;
76723;SDS011;65650;53.126;17.950;2022-12-10T04:56:22;27.10;;;11.80;;
76723;SDS011;65650;53.126;17.950;2022-12-10T04:58:48;33.00;;;12.70;;
76723;SDS011;65650;53.126;17.950;2022-12-10T05:01:16;30.40;;;12.60;;
76723;SDS011;65650;53.126;17.950;2022-12-10T05:03:45;26.60;;;11.10;;
76723;SDS011;65650;53.126;17.950;2022-12-10T05:06:14;37.70;;;15.80;;
76723;SDS011;65650;53.126;17.950;2022-12-10T05:08:41;33.50;;;14.20;;
76723;SDS011;65650;53.126;17.950;2022-12-10T05:11:09;28.70;;;12.10;;
76723;SDS011;65650;53.126;17.950;2022-12-10T05:13:36;29.90;;;12.00;;
76723;SDS011;65650;53.126;17.950;2022-12-10T05:16:03;40.00;;;16.00;;
76723;SDS011;65650;53.126;17.950;2022-12-10T05:18:31;35.10;;;13.90;;
76723;SDS011;65650;53.126;17.950;2022-12-10T05:20:58;41.30;;;17.90;;
76723;SDS011;65650;53.126;17.950;2022-12-10T05:23:25;42.10;;;17.30;;
76723;SDS011;65650;53.126;17.950;2022-12-10T05:26:11;36.70;;;15.90;;
76723;SDS011;65650;53.126;17.950;2022-12-10T05:28:40;29.20;;;13.20;;
76723;SDS011;65650;53.126;17.950;2022-12-10T05:31:23;34.10;;;14.70;;
76723;SDS011;65650;53.126;17.950;2022-12-10T05:33:52;33.80;;;12.70;;
76723;SDS011;65650;53.126;17.950;2022-12-10T05:36:20;28.90;;;12.10;;
76723;SDS011;65650;53.126;17.950;2022-12-10T05:38:47;33.30;;;13.50;;
76723;SDS011;65650;53.126;17.950;2022-12-10T05:41:15;28.00;;;12.00;;
76723;SDS011;65650;53.126;17.950;2022-12-10T05:43:43;29.40;;;12.30;;
76723;SDS011;65650;53.126;17.950;2022-12-10T05:46:10;27.50;;;10.80;;
76723;SDS011;65650;53.126;17.950;2022-12-10T05:48:38;30.60;;;12.50;;
76723;SDS011;65650;53.126;17.950;2022-12-10T05:51:05;31.50;;;13.30;;
76723;SDS011;65650;53.126;17.950;2022-12-10T05:53:32;27.90;;;11.40;;
76723;SDS011;65650;53.126;17.950;2022-12-10T05:55:59;30.40;;;12.30;;
76723;SDS011;65650;53.126;17.950;2022-12-10T05:58:27;29.00;;;11.10;;
76723;SDS011;65650;53.126;17.950;2022-12-10T06:00:53;25.80;;;11.30;;
76723;SDS011;65650;53.126;17.950;2022-12-10T06:03:20;26.30;;;11.20;;
76723;SDS011;65650;53.126;17.950;2022-12-10T06:05:46;23.70;;;10.70;;
76723;SDS011;65650;53.126;17.950;2022-12-10T06:08:13;24.30;;;10.10;;
76723;SDS011;65650;53.126;17.950;2022-12-10T06:10:39;27.70;;;11.30;;
76723;SDS011;65650;53.126;17.950;2022-12-10T06:13:06;24.80;;;10.80;;
76723;SDS011;65650;53.126;17.950;2022-12-10T06:15:32;26.50;;;11.40;;
76723;SDS011;65650;53.126;17.950;2022-12-10T06:17:59;27.40;;;11.80;;
76723;SDS011;65650;53.126;17.950;2022-12-10T06:20:25;26.60;;;12.20;;
76723;SDS011;65650;53.126;17.950;2022-12-10T06:22:52;42.20;;;18.10;;
76723;SDS011;65650;53.126;17.950;2022-12-10T06:25:18;29.90;;;12.40;;
76723;SDS011;65650;53.126;17.950;2022-12-10T06:27:45;32.10;;;13.20;;
76723;SDS011;65650;53.126;17.950;2022-12-10T06:30:11;29.70;;;12.50;;
76723;SDS011;65650;53.126;17.950;2022-12-10T06:32:38;30.00;;;13.30;;
76723;SDS011;65650;53.126;17.950;2022-12-10T06:35:05;34.00;;;14.80;;
76723;SDS011;65650;53.126;17.950;2022-12-10T06:37:32;33.80;;;13.40;;
76723;SDS011;65650;53.126;17.950;2022-12-10T06:39:59;26.10;;;10.70;;
76723;SDS011;65650;53.126;17.950;2022-12-10T06:42:25;24.60;;;11.00;;
76723;SDS011;65650;53.126;17.950;2022-12-10T06:44:52;25.40;;;11.00;;
76723;SDS011;65650;53.126;17.950;2022-12-10T06:47:18;27.00;;;10.70;;
76723;SDS011;65650;53.126;17.950;2022-12-10T06:49:45;28.60;;;11.90;;
76723;SDS011;65650;53.126;17.950;2022-12-10T06:52:11;33.40;;;14.70;;
76723;SDS011;65650;53.126;17.950;2022-12-10T06:54:38;27.70;;;11.70;;
76723;SDS011;65650;53.126;17.950;2022-12-10T06:57:04;37.40;;;16.10;;
76723;SDS011;65650;53.126;17.950;2022-12-10T06:59:31;34.50;;;13.30;;
76723;SDS011;65650;53.126;17.950;2022-12-10T07:01:58;36.20;;;14.70;;
76723;SDS011;65650;53.126;17.950;2022-12-10T07:04:24;39.80;;;16.40;;
76723;SDS011;65650;53.126;17.950;2022-12-10T07:06:51;39.20;;;16.10;;
76723;SDS011;65650;53.126;17.950;2022-12-10T07:09:18;39.80;;;15.90;;
76723;SDS011;65650;53.126;17.950;2022-12-10T07:11:45;33.10;;;13.10;;
76723;SDS011;65650;53.126;17.950;2022-12-10T07:14:13;34.60;;;14.30;;
76723;SDS011;65650;53.126;17.950;2022-12-10T07:16:40;37.00;;;14.50;;
76723;SDS011;65650;53.126;17.950;2022-12-10T07:19:08;41.40;;;17.60;;
76723;SDS011;65650;53.126;17.950;2022-12-10T07:21:36;34.80;;;14.30;;
76723;SDS011;65650;53.126;17.950;2022-12-10T07:24:03;39.40;;;16.00;;
76723;SDS011;65650;53.126;17.950;2022-12-10T07:26:31;38.80;;;15.20;;
76723;SDS011;65650;53.126;17.950;2022-12-10T07:28:58;35.10;;;14.40;;
76723;SDS011;65650;53.126;17.950;2022-12-10T07:31:25;30.60;;;12.80;;
76723;SDS011;65650;53.126;17.950;2022-12-10T07:33:52;37.00;;;14.30;;
76723;SDS011;65650;53.126;17.950;2022-12-10T07:36:20;41.00;;;16.90;;
76723;SDS011;65650;53.126;17.950;2022-12-10T07:38:49;35.30;;;15.10;;
76723;SDS011;65650;53.126;17.950;2022-12-10T07:41:15;40.20;;;15.60;;
76723;SDS011;65650;53.126;17.950;2022-12-10T07:43:43;34.50;;;14.30;;
76723;SDS011;65650;53.126;17.950;2022-12-10T07:46:11;29.00;;;13.50;;
76723;SDS011;65650;53.126;17.950;2022-12-10T07:48:40;31.80;;;15.00;;
76723;SDS011;65650;53.126;17.950;2022-12-10T07:51:07;28.70;;;13.00;;
76723;SDS011;65650;53.126;17.950;2022-12-10T07:53:33;60.60;;;22.30;;
76723;SDS011;65650;53.126;17.950;2022-12-10T07:56:00;51.20;;;20.80;;
76723;SDS011;65650;53.126;17.950;2022-12-10T07:58:27;57.70;;;23.50;;
76723;SDS011;65650;53.126;17.950;2022-12-10T08:00:54;41.00;;;18.20;;
76723;SDS011;65650;53.126;17.950;2022-12-10T08:03:20;41.70;;;17.60;;
76723;SDS011;65650;53.126;17.950;2022-12-10T08:05:47;37.00;;;16.60;;
76723;SDS011;65650;53.126;17.950;2022-12-10T08:08:13;35.10;;;14.70;;
76723;SDS011;65650;53.126;17.950;2022-12-10T08:10:40;38.30;;;15.60;;
76723;SDS011;65650;53.126;17.950;2022-12-10T08:13:06;32.80;;;14.20;;
76723;SDS011;65650;53.126;17.950;2022-12-10T08:15:32;27.40;;;13.00;;
76723;SDS011;65650;53.126;17.950;2022-12-10T08:17:59;32.00;;;14.20;;
76723;SDS011;65650;53.126;17.950;2022-12-10T08:20:25;32.30;;;14.10;;
76723;SDS011;65650;53.126;17.950;2022-12-10T08:22:52;26.70;;;12.10;;
76723;SDS011;65650;53.126;17.950;2022-12-10T08:25:18;30.40;;;13.00;;
76723;SDS011;65650;53.126;17.950;2022-12-10T08:27:45;30.00;;;11.80;;
76723;SDS011;65650;53.126;17.950;2022-12-10T08:30:11;32.30;;;15.10;;
76723;SDS011;65650;53.126;17.950;2022-12-10T08:32:38;31.30;;;13.60;;
76723;SDS011;65650;53.126;17.950;2022-12-10T08:35:05;37.60;;;14.60;;
76723;SDS011;65650;53.126;17.950;2022-12-10T08:37:32;40.10;;;15.60;;
76723;SDS011;65650;53.126;17.950;2022-12-10T08:39:59;41.60;;;17.00;;
76723;SDS011;65650;53.126;17.950;2022-12-10T08:42:25;43.50;;;17.40;;
76723;SDS011;65650;53.126;17.950;2022-12-10T08:44:52;34.80;;;15.10;;
76723;SDS011;65650;53.126;17.950;2022-12-10T08:47:18;38.50;;;17.00;;
76723;SDS011;65650;53.126;17.950;2022-12-10T08:49:44;38.90;;;15.00;;
76723;SDS011;65650;53.126;17.950;2022-12-10T08:52:11;45.30;;;18.00;;
76723;SDS011;65650;53.126;17.950;2022-12-10T08:54:37;42.50;;;18.00;;
76723;SDS011;65650;53.126;17.950;2022-12-10T08:57:04;39.10;;;16.70;;
76723;SDS011;65650;53.126;17.950;2022-12-10T08:59:30;41.10;;;17.20;;
76723;SDS011;65650;53.126;17.950;2022-12-10T09:01:57;36.90;;;16.40;;
76723;SDS011;65650;53.126;17.950;2022-12-10T09:04:23;34.00;;;14.50;;
76723;SDS011;65650;53.126;17.950;2022-12-10T09:06:50;32.70;;;13.60;;
76723;SDS011;65650;53.126;17.950;2022-12-10T09:09:16;45.70;;;18.00;;
76723;SDS011;65650;53.126;17.950;2022-12-10T09:11:43;44.70;;;18.80;;
76723;SDS011;65650;53.126;17.950;2022-12-10T09:14:12;41.40;;;16.50;;
76723;SDS011;65650;53.126;17.950;2022-12-10T09:16:38;42.80;;;18.50;;
76723;SDS011;65650;53.126;17.950;2022-12-10T09:19:05;43.10;;;18.60;;
76723;SDS011;65650;53.126;17.950;2022-12-10T09:21:32;43.50;;;17.10;;
76723;SDS011;65650;53.126;17.950;2022-12-10T09:24:01;45.40;;;17.10;;
76723;SDS011;65650;53.126;17.950;2022-12-10T09:26:29;53.70;;;20.30;;
76723;SDS011;65650;53.126;17.950;2022-12-10T09:28:55;47.80;;;18.40;;
76723;SDS011;65650;53.126;17.950;2022-12-10T09:31:24;45.90;;;17.10;;
76723;SDS011;65650;53.126;17.950;2022-12-10T09:33:51;27.40;;;11.30;;
76723;SDS011;65650;53.126;17.950;2022-12-10T09:36:19;38.80;;;14.60;;
76723;SDS011;65650;53.126;17.950;2022-12-10T09:38:46;35.20;;;14.70;;
76723;SDS011;65650;53.126;17.950;2022-12-10T09:51:31;32.40;;;12.60;;
76723;SDS011;65650;53.126;17.950;2022-12-10T09:53:59;31.90;;;12.40;;
76723;SDS011;65650;53.126;17.950;2022-12-10T09:56:28;24.50;;;10.30;;
76723;SDS011;65650;53.126;17.950;2022-12-10T09:58:56;26.00;;;10.20;;
76723;SDS011;65650;53.126;17.950;2022-12-10T10:01:23;28.70;;;11.40;;
76723;SDS011;65650;53.126;17.950;2022-12-10T10:03:51;33.20;;;13.10;;
76723;SDS011;65650;53.126;17.950;2022-12-10T10:06:17;21.90;;;9.40;;
76723;SDS011;65650;53.126;17.950;2022-12-10T10:08:45;32.40;;;13.80;;
76723;SDS011;65650;53.126;17.950;2022-12-10T10:11:17;29.40;;;12.10;;
76723;SDS011;65650;53.126;17.950;2022-12-10T10:13:54;26.50;;;9.80;;
76723;SDS011;65650;53.126;17.950;2022-12-10T10:16:24;28.40;;;11.10;;
76723;SDS011;65650;53.126;17.950;2022-12-10T10:18:56;28.40;;;12.80;;
76723;SDS011;65650;53.126;17.950;2022-12-10T10:21:32;30.10;;;12.90;;
76723;SDS011;65650;53.126;17.950;2022-12-10T10:24:00;31.60;;;12.80;;
76723;SDS011;65650;53.126;17.950;2022-12-10T10:26:28;29.00;;;12.30;;
76723;SDS011;65650;53.126;17.950;2022-12-10T10:29:00;21.90;;;9.90;;
76723;SDS011;65650;53.126;17.950;2022-12-10T10:31:28;25.50;;;10.60;;
76723;SDS011;65650;53.126;17.950;2022-12-10T10:33:55;23.80;;;10.80;;
76723;SDS011;65650;53.126;17.950;2022-12-10T10:36:23;30.50;;;13.10;;
76723;SDS011;65650;53.126;17.950;2022-12-10T10:38:50;27.50;;;11.70;;
76723;SDS011;65650;53.126;17.950;2022-12-10T10:41:17;30.00;;;11.80;;
76723;SDS011;65650;53.126;17.950;2022-12-10T10:43:44;33.20;;;13.20;;
76723;SDS011;65650;53.126;17.950;2022-12-10T10:46:17;25.80;;;11.50;;
76723;SDS011;65650;53.126;17.950;2022-12-10T10:48:47;31.60;;;12.40;;
76723;SDS011;65650;53.126;17.950;2022-12-10T10:53:45;39.70;;;15.20;;
76723;SDS011;65650;53.126;17.950;2022-12-10T10:56:14;38.70;;;16.10;;
76723;SDS011;65650;53.126;17.950;2022-12-10T10:58:49;29.90;;;13.40;;
76723;SDS011;65650;53.126;17.950;2022-12-10T11:01:16;23.70;;;10.40;;
76723;SDS011;65650;53.126;17.950;2022-12-10T11:03:47;23.80;;;9.70;;
76723;SDS011;65650;53.126;17.950;2022-12-10T11:06:14;24.40;;;10.40;;
76723;SDS011;65650;53.126;17.950;2022-12-10T11:08:41;24.70;;;10.30;;
76723;SDS011;65650;53.126;17.950;2022-12-10T11:11:12;25.10;;;10.20;;
76723;SDS011;65650;53.126;17.950;2022-12-10T11:13:41;20.70;;;9.90;;
76723;SDS011;65650;53.126;17.950;2022-12-10T11:16:12;21.30;;;10.20;;
76723;SDS011;65650;53.126;17.950;2022-12-10T11:18:40;20.10;;;8.70;;
76723;SDS011;65650;53.126;17.950;2022-12-10T11:23:42;22.30;;;9.70;;
76723;SDS011;65650;53.126;17.950;2022-12-10T11:31:45;20.40;;;8.90;;
76723;SDS011;65650;53.126;17.950;2022-12-10T11:34:23;23.60;;;9.50;;
76723;SDS011;65650;53.126;17.950;2022-12-10T11:42:26;28.80;;;11.60;;
76723;SDS011;65650;53.126;17.950;2022-12-10T11:47:49;25.30;;;10.50;;
76723;SDS011;65650;53.126;17.950;2022-12-10T11:50:24;21.00;;;8.90;;
76723;SDS011;65650;53.126;17.950;2022-12-10T11:53:16;21.40;;;8.50;;
76723;SDS011;65650;53.126;17.950;2022-12-10T11:55:41;20.30;;;8.00;;
76723;SDS011;65650;53.126;17.950;2022-12-10T11:58:23;19.80;;;7.90;;
76723;SDS011;65650;53.126;17.950;2022-12-10T12:09:04;15.20;;;6.90;;
76723;SDS011;65650;53.126;17.950;2022-12-10T12:19:30;18.40;;;8.10;;
76723;SDS011;65650;53.126;17.950;2022-12-10T12:21:58;17.10;;;8.10;;
76723;SDS011;65650;53.126;17.950;2022-12-10T12:24:34;17.20;;;7.80;;
76723;SDS011;65650;53.126;17.950;2022-12-10T12:27:04;14.60;;;6.80;;
76723;SDS011;65650;53.126;17.950;2022-12-10T12:29:36;17.30;;;7.10;;
76723;SDS011;65650;53.126;17.950;2022-12-10T12:35:17;14.00;;;6.40;;
76723;SDS011;65650;53.126;17.950;2022-12-10T12:37:48;19.10;;;7.30;;
76723;SDS011;65650;53.126;17.950;2022-12-10T12:43:16;17.20;;;8.40;;
76723;SDS011;65650;53.126;17.950;2022-12-10T12:45:45;25.90;;;11.00;;
76723;SDS011;65650;53.126;17.950;2022-12-10T12:48:19;22.40;;;8.50;;
76723;SDS011;65650;53.126;17.950;2022-12-10T12:50:59;20.40;;;8.20;;
76723;SDS011;65650;53.126;17.950;2022-12-10T12:53:26;18.30;;;7.90;;
76723;SDS011;65650;53.126;17.950;2022-12-10T12:56:04;14.90;;;7.00;;
76723;SDS011;65650;53.126;17.950;2022-12-10T13:01:05;18.30;;;7.40;;
76723;SDS011;65650;53.126;17.950;2022-12-10T13:03:36;18.90;;;7.80;;
76723;SDS011;65650;53.126;17.950;2022-12-10T13:06:15;15.50;;;7.30;;
76723;SDS011;65650;53.126;17.950;2022-12-10T13:08:43;16.60;;;7.50;;
76723;SDS011;65650;53.126;17.950;2022-12-10T13:13:38;19.20;;;7.10;;
76723;SDS011;65650;53.126;17.950;2022-12-10T13:18:53;16.10;;;7.00;;
76723;SDS011;65650;53.126;17.950;2022-12-10T13:21:36;13.10;;;6.30;;
76723;SDS011;65650;53.126;17.950;2022-12-10T13:29:53;26.80;;;11.40;;
76723;SDS011;65650;53.126;17.950;2022-12-10T13:32:24;18.10;;;7.60;;
76723;SDS011;65650;53.126;17.950;2022-12-10T13:42:34;20.00;;;8.80;;
76723;SDS011;65650;53.126;17.950;2022-12-10T13:47:50;21.30;;;8.00;;
76723;SDS011;65650;53.126;17.950;2022-12-10T13:50:19;16.90;;;6.90;;
76723;SDS011;65650;53.126;17.950;2022-12-10T13:55:36;29.60;;;12.00;;
76723;SDS011;65650;53.126;17.950;2022-12-10T14:08:37;21.10;;;9.20;;
76723;SDS011;65650;53.126;17.950;2022-12-10T14:11:06;21.40;;;8.70;;
76723;SDS011;65650;53.126;17.950;2022-12-10T14:13:39;21.30;;;9.70;;
76723;SDS011;65650;53.126;17.950;2022-12-10T14:16:09;23.00;;;9.00;;
76723;SDS011;65650;53.126;17.950;2022-12-10T14:18:36;22.40;;;10.40;;
76723;SDS011;65650;53.126;17.950;2022-12-10T14:21:05;21.10;;;10.00;;
76723;SDS011;65650;53.126;17.950;2022-12-10T14:23:32;25.70;;;9.80;;
76723;SDS011;65650;53.126;17.950;2022-12-10T14:26:22;27.40;;;10.30;;
76723;SDS011;65650;53.126;17.950;2022-12-10T14:28:54;27.50;;;11.40;;
76723;SDS011;65650;53.126;17.950;2022-12-10T14:31:25;28.30;;;10.20;;
76723;SDS011;65650;53.126;17.950;2022-12-10T14:33:52;24.70;;;10.20;;
76723;SDS011;65650;53.126;17.950;2022-12-10T14:36:31;29.30;;;12.00;;
76723;SDS011;65650;53.126;17.950;2022-12-10T14:38:59;27.30;;;11.10;;
76723;SDS011;65650;53.126;17.950;2022-12-10T14:41:26;26.10;;;10.80;;
76723;SDS011;65650;53.126;17.950;2022-12-10T14:43:54;29.70;;;11.90;;
76723;SDS011;65650;53.126;17.950;2022-12-10T14:46:24;29.00;;;11.40;;
76723;SDS011;65650;53.126;17.950;2022-12-10T14:48:51;32.70;;;14.00;;
76723;SDS011;65650;53.126;17.950;2022-12-10T14:51:22;33.80;;;14.30;;
76723;SDS011;65650;53.126;17.950;2022-12-10T14:53:50;31.80;;;13.60;;
76723;SDS011;65650;53.126;17.950;2022-12-10T14:56:19;29.50;;;12.80;;
76723;SDS011;65650;53.126;17.950;2022-12-10T14:59:04;33.10;;;13.60;;
76723;SDS011;65650;53.126;17.950;2022-12-10T15:01:34;36.30;;;13.70;;
76723;SDS011;65650;53.126;17.950;2022-12-10T15:04:02;35.60;;;15.00;;
76723;SDS011;65650;53.126;17.950;2022-12-10T15:06:31;32.70;;;14.10;;
76723;SDS011;65650;53.126;17.950;2022-12-10T15:08:59;41.60;;;17.20;;
76723;SDS011;65650;53.126;17.950;2022-12-10T15:11:26;41.30;;;18.20;;
76723;SDS011;65650;53.126;17.950;2022-12-10T15:13:54;39.20;;;16.50;;
76723;SDS011;65650;53.126;17.950;2022-12-10T15:19:08;34.80;;;14.70;;
76723;SDS011;65650;53.126;17.950;2022-12-10T15:21:40;32.10;;;12.40;;
76723;SDS011;65650;53.126;17.950;2022-12-10T15:24:15;35.50;;;14.50;;
76723;SDS011;65650;53.126;17.950;2022-12-10T15:26:46;33.70;;;13.30;;
76723;SDS011;65650;53.126;17.950;2022-12-10T15:31:42;34.40;;;13.20;;
76723;SDS011;65650;53.126;17.950;2022-12-10T15:34:10;25.70;;;10.80;;
76723;SDS011;65650;53.126;17.950;2022-12-10T15:36:40;29.50;;;12.60;;
76723;SDS011;65650;53.126;17.950;2022-12-10T15:46:48;31.40;;;13.80;;
76723;SDS011;65650;53.126;17.950;2022-12-10T15:49:15;28.90;;;13.00;;
76723;SDS011;65650;53.126;17.950;2022-12-10T15:51:41;32.30;;;12.60;;
76723;SDS011;65650;53.126;17.950;2022-12-10T15:54:28;28.30;;;11.70;;
76723;SDS011;65650;53.126;17.950;2022-12-10T15:56:57;26.70;;;10.50;;
76723;SDS011;65650;53.126;17.950;2022-12-10T15:59:24;27.60;;;11.00;;
76723;SDS011;65650;53.126;17.950;2022-12-10T16:01:50;28.50;;;11.10;;
76723;SDS011;65650;53.126;17.950;2022-12-10T16:04:17;32.60;;;12.20;;
76723;SDS011;65650;53.126;17.950;2022-12-10T16:06:43;32.90;;;13.30;;
76723;SDS011;65650;53.126;17.950;2022-12-10T16:09:10;33.30;;;14.20;;
76723;SDS011;65650;53.126;17.950;2022-12-10T16:11:36;29.40;;;12.70;;
76723;SDS011;65650;53.126;17.950;2022-12-10T16:14:03;28.10;;;11.80;;